Aviation Digital Data Service (ADDS)

Output produced by METARs form (0120 UTC 04 August 2015)
found at http://aviationweather.gov/adds/metars/
 
KARA 032334Z 0400/0424 16008KT P6SM FEW060 
     FM040200 VRB05KT P6SM SKC 
     FM041800 20009KT P6SM VCTS SCT050CB BKN120